sensor_id;sensor_type;location;lat;lon;timestamp;P1;durP1;ratioP1;P2;durP2;ratioP2
27893;SDS011;15240;50.812;4.792;2022-12-04T00:00:41;68.73;;;30.90;;
27893;SDS011;15240;50.812;4.792;2022-12-04T00:03:07;75.43;;;35.03;;
27893;SDS011;15240;50.812;4.792;2022-12-04T00:05:33;75.33;;;32.77;;
27893;SDS011;15240;50.812;4.792;2022-12-04T00:07:59;71.23;;;33.10;;
27893;SDS011;15240;50.812;4.792;2022-12-04T00:10:25;76.57;;;33.17;;
27893;SDS011;15240;50.812;4.792;2022-12-04T00:12:51;71.90;;;33.17;;
27893;SDS011;15240;50.812;4.792;2022-12-04T00:15:18;73.07;;;35.03;;
27893;SDS011;15240;50.812;4.792;2022-12-04T00:17:47;71.97;;;33.70;;
27893;SDS011;15240;50.812;4.792;2022-12-04T00:20:13;74.50;;;33.90;;
27893;SDS011;15240;50.812;4.792;2022-12-04T00:22:40;76.97;;;33.73;;
27893;SDS011;15240;50.812;4.792;2022-12-04T00:25:06;76.07;;;33.10;;
27893;SDS011;15240;50.812;4.792;2022-12-04T00:27:32;76.60;;;34.33;;
27893;SDS011;15240;50.812;4.792;2022-12-04T00:29:58;76.03;;;35.60;;
27893;SDS011;15240;50.812;4.792;2022-12-04T00:32:24;78.23;;;36.33;;
27893;SDS011;15240;50.812;4.792;2022-12-04T00:34:53;79.47;;;33.37;;
27893;SDS011;15240;50.812;4.792;2022-12-04T00:37:19;74.57;;;34.37;;
27893;SDS011;15240;50.812;4.792;2022-12-04T00:39:45;76.27;;;34.03;;
27893;SDS011;15240;50.812;4.792;2022-12-04T00:42:12;75.97;;;34.10;;
27893;SDS011;15240;50.812;4.792;2022-12-04T00:44:38;71.50;;;33.80;;
27893;SDS011;15240;50.812;4.792;2022-12-04T00:47:04;72.60;;;33.27;;
27893;SDS011;15240;50.812;4.792;2022-12-04T00:49:30;74.30;;;34.67;;
27893;SDS011;15240;50.812;4.792;2022-12-04T00:51:56;70.93;;;33.63;;
27893;SDS011;15240;50.812;4.792;2022-12-04T00:54:22;74.60;;;34.77;;
27893;SDS011;15240;50.812;4.792;2022-12-04T00:56:48;71.47;;;32.07;;
27893;SDS011;15240;50.812;4.792;2022-12-04T00:59:14;70.57;;;32.83;;
27893;SDS011;15240;50.812;4.792;2022-12-04T01:01:40;70.43;;;33.97;;
27893;SDS011;15240;50.812;4.792;2022-12-04T01:04:06;71.17;;;34.33;;
27893;SDS011;15240;50.812;4.792;2022-12-04T01:06:33;68.70;;;32.73;;
27893;SDS011;15240;50.812;4.792;2022-12-04T01:09:00;70.17;;;33.67;;
27893;SDS011;15240;50.812;4.792;2022-12-04T01:11:26;66.70;;;33.23;;
27893;SDS011;15240;50.812;4.792;2022-12-04T01:13:53;63.43;;;31.93;;
27893;SDS011;15240;50.812;4.792;2022-12-04T01:16:23;68.83;;;32.67;;
27893;SDS011;15240;50.812;4.792;2022-12-04T01:18:49;69.47;;;33.03;;
27893;SDS011;15240;50.812;4.792;2022-12-04T01:21:16;68.33;;;33.20;;
27893;SDS011;15240;50.812;4.792;2022-12-04T01:23:43;73.77;;;32.77;;
27893;SDS011;15240;50.812;4.792;2022-12-04T01:26:09;64.07;;;30.10;;
27893;SDS011;15240;50.812;4.792;2022-12-04T01:28:35;67.57;;;31.73;;
27893;SDS011;15240;50.812;4.792;2022-12-04T01:31:05;68.60;;;33.07;;
27893;SDS011;15240;50.812;4.792;2022-12-04T01:33:32;66.20;;;30.77;;
27893;SDS011;15240;50.812;4.792;2022-12-04T01:35:59;61.43;;;29.67;;
27893;SDS011;15240;50.812;4.792;2022-12-04T01:38:26;63.80;;;30.10;;
27893;SDS011;15240;50.812;4.792;2022-12-04T01:40:52;60.77;;;29.73;;
27893;SDS011;15240;50.812;4.792;2022-12-04T01:43:19;66.83;;;31.80;;
27893;SDS011;15240;50.812;4.792;2022-12-04T01:45:45;64.47;;;31.33;;
27893;SDS011;15240;50.812;4.792;2022-12-04T01:48:14;64.87;;;30.63;;
27893;SDS011;15240;50.812;4.792;2022-12-04T01:50:40;62.63;;;30.97;;
27893;SDS011;15240;50.812;4.792;2022-12-04T01:53:07;69.00;;;32.37;;
27893;SDS011;15240;50.812;4.792;2022-12-04T01:55:33;66.83;;;31.63;;
27893;SDS011;15240;50.812;4.792;2022-12-04T01:57:59;66.00;;;31.67;;
27893;SDS011;15240;50.812;4.792;2022-12-04T02:00:26;68.23;;;31.07;;
27893;SDS011;15240;50.812;4.792;2022-12-04T02:02:53;62.97;;;29.93;;
27893;SDS011;15240;50.812;4.792;2022-12-04T02:05:20;61.33;;;29.97;;
27893;SDS011;15240;50.812;4.792;2022-12-04T02:07:47;64.63;;;31.90;;
27893;SDS011;15240;50.812;4.792;2022-12-04T02:10:15;67.13;;;31.70;;
27893;SDS011;15240;50.812;4.792;2022-12-04T02:15:29;65.37;;;32.53;;
27893;SDS011;15240;50.812;4.792;2022-12-04T02:28:36;63.23;;;31.80;;
27893;SDS011;15240;50.812;4.792;2022-12-04T02:31:06;63.53;;;31.03;;
27893;SDS011;15240;50.812;4.792;2022-12-04T02:33:37;58.43;;;28.60;;
27893;SDS011;15240;50.812;4.792;2022-12-04T02:36:10;62.27;;;31.20;;
27893;SDS011;15240;50.812;4.792;2022-12-04T02:38:39;66.80;;;31.23;;
27893;SDS011;15240;50.812;4.792;2022-12-04T02:41:09;64.80;;;31.67;;
27893;SDS011;15240;50.812;4.792;2022-12-04T02:43:42;69.13;;;32.77;;
27893;SDS011;15240;50.812;4.792;2022-12-04T02:46:12;66.10;;;32.23;;
27893;SDS011;15240;50.812;4.792;2022-12-04T02:48:40;64.23;;;31.80;;
27893;SDS011;15240;50.812;4.792;2022-12-04T02:51:09;63.83;;;31.63;;
27893;SDS011;15240;50.812;4.792;2022-12-04T02:53:37;68.43;;;33.73;;
27893;SDS011;15240;50.812;4.792;2022-12-04T02:56:13;65.97;;;32.50;;
27893;SDS011;15240;50.812;4.792;2022-12-04T02:59:15;61.03;;;32.00;;
27893;SDS011;15240;50.812;4.792;2022-12-04T03:01:34;64.77;;;31.93;;
27893;SDS011;15240;50.812;4.792;2022-12-04T03:04:12;65.07;;;31.37;;
27893;SDS011;15240;50.812;4.792;2022-12-04T03:06:40;64.23;;;30.53;;
27893;SDS011;15240;50.812;4.792;2022-12-04T03:09:12;59.37;;;30.07;;
27893;SDS011;15240;50.812;4.792;2022-12-04T03:11:41;65.23;;;31.60;;
27893;SDS011;15240;50.812;4.792;2022-12-04T03:14:10;62.20;;;28.67;;
27893;SDS011;15240;50.812;4.792;2022-12-04T03:16:39;64.73;;;32.10;;
27893;SDS011;15240;50.812;4.792;2022-12-04T03:19:07;62.53;;;31.83;;
27893;SDS011;15240;50.812;4.792;2022-12-04T03:21:35;58.93;;;31.13;;
27893;SDS011;15240;50.812;4.792;2022-12-04T03:24:07;61.83;;;30.70;;
27893;SDS011;15240;50.812;4.792;2022-12-04T03:26:37;64.67;;;32.40;;
27893;SDS011;15240;50.812;4.792;2022-12-04T03:34:02;66.00;;;31.70;;
27893;SDS011;15240;50.812;4.792;2022-12-04T03:36:32;68.63;;;31.00;;
27893;SDS011;15240;50.812;4.792;2022-12-04T03:39:02;68.17;;;31.63;;
27893;SDS011;15240;50.812;4.792;2022-12-04T03:44:43;63.40;;;29.77;;
27893;SDS011;15240;50.812;4.792;2022-12-04T03:47:03;65.90;;;32.93;;
27893;SDS011;15240;50.812;4.792;2022-12-04T03:54:45;68.53;;;32.83;;
27893;SDS011;15240;50.812;4.792;2022-12-04T03:57:12;68.83;;;32.53;;
27893;SDS011;15240;50.812;4.792;2022-12-04T03:59:55;69.53;;;33.53;;
27893;SDS011;15240;50.812;4.792;2022-12-04T04:02:24;63.83;;;31.83;;
27893;SDS011;15240;50.812;4.792;2022-12-04T04:04:54;63.23;;;31.87;;
27893;SDS011;15240;50.812;4.792;2022-12-04T04:07:28;62.20;;;31.87;;
27893;SDS011;15240;50.812;4.792;2022-12-04T04:09:58;69.57;;;33.70;;
27893;SDS011;15240;50.812;4.792;2022-12-04T04:12:27;65.10;;;32.63;;
27893;SDS011;15240;50.812;4.792;2022-12-04T04:15:00;69.23;;;34.03;;
27893;SDS011;15240;50.812;4.792;2022-12-04T04:17:47;66.03;;;31.40;;
27893;SDS011;15240;50.812;4.792;2022-12-04T04:20:37;66.33;;;33.33;;
27893;SDS011;15240;50.812;4.792;2022-12-04T04:23:23;65.10;;;30.97;;
27893;SDS011;15240;50.812;4.792;2022-12-04T04:26:10;67.33;;;33.13;;
27893;SDS011;15240;50.812;4.792;2022-12-04T04:28:37;67.17;;;33.00;;
27893;SDS011;15240;50.812;4.792;2022-12-04T04:33:33;67.33;;;32.73;;
27893;SDS011;15240;50.812;4.792;2022-12-04T04:36:07;69.90;;;32.83;;
27893;SDS011;15240;50.812;4.792;2022-12-04T04:38:41;68.77;;;32.17;;
27893;SDS011;15240;50.812;4.792;2022-12-04T04:43:36;64.87;;;33.03;;
27893;SDS011;15240;50.812;4.792;2022-12-04T04:46:05;65.73;;;32.40;;
27893;SDS011;15240;50.812;4.792;2022-12-04T04:48:33;67.80;;;33.63;;
27893;SDS011;15240;50.812;4.792;2022-12-04T04:51:02;68.90;;;33.57;;
27893;SDS011;15240;50.812;4.792;2022-12-04T04:53:39;64.40;;;32.47;;
27893;SDS011;15240;50.812;4.792;2022-12-04T04:56:07;67.70;;;33.67;;
27893;SDS011;15240;50.812;4.792;2022-12-04T04:58:33;66.27;;;32.47;;
27893;SDS011;15240;50.812;4.792;2022-12-04T05:01:04;65.83;;;33.87;;
27893;SDS011;15240;50.812;4.792;2022-12-04T05:03:32;67.20;;;32.17;;
27893;SDS011;15240;50.812;4.792;2022-12-04T05:05:58;62.90;;;32.53;;
27893;SDS011;15240;50.812;4.792;2022-12-04T05:08:24;67.77;;;32.73;;
27893;SDS011;15240;50.812;4.792;2022-12-04T05:10:50;64.53;;;32.53;;
27893;SDS011;15240;50.812;4.792;2022-12-04T05:13:16;66.47;;;33.43;;
27893;SDS011;15240;50.812;4.792;2022-12-04T05:15:43;66.10;;;34.10;;
27893;SDS011;15240;50.812;4.792;2022-12-04T05:18:09;65.87;;;33.03;;
27893;SDS011;15240;50.812;4.792;2022-12-04T05:20:38;69.07;;;32.67;;
27893;SDS011;15240;50.812;4.792;2022-12-04T05:23:05;73.43;;;33.50;;
27893;SDS011;15240;50.812;4.792;2022-12-04T05:25:32;65.87;;;33.47;;
27893;SDS011;15240;50.812;4.792;2022-12-04T05:27:58;70.53;;;35.33;;
27893;SDS011;15240;50.812;4.792;2022-12-04T05:30:24;68.30;;;33.23;;
27893;SDS011;15240;50.812;4.792;2022-12-04T05:32:50;69.87;;;34.37;;
27893;SDS011;15240;50.812;4.792;2022-12-04T05:35:16;68.70;;;33.33;;
27893;SDS011;15240;50.812;4.792;2022-12-04T05:37:42;70.83;;;35.10;;
27893;SDS011;15240;50.812;4.792;2022-12-04T05:40:09;72.77;;;33.83;;
27893;SDS011;15240;50.812;4.792;2022-12-04T05:42:35;68.87;;;34.67;;
27893;SDS011;15240;50.812;4.792;2022-12-04T05:45:02;71.80;;;34.73;;
27893;SDS011;15240;50.812;4.792;2022-12-04T05:47:28;70.87;;;34.13;;
27893;SDS011;15240;50.812;4.792;2022-12-04T05:49:54;67.80;;;33.33;;
27893;SDS011;15240;50.812;4.792;2022-12-04T05:52:20;68.27;;;34.67;;
27893;SDS011;15240;50.812;4.792;2022-12-04T05:54:46;71.87;;;35.53;;
27893;SDS011;15240;50.812;4.792;2022-12-04T05:57:12;75.27;;;35.37;;
27893;SDS011;15240;50.812;4.792;2022-12-04T05:59:38;74.53;;;34.03;;
27893;SDS011;15240;50.812;4.792;2022-12-04T06:02:04;72.17;;;34.97;;
27893;SDS011;15240;50.812;4.792;2022-12-04T06:04:30;75.97;;;35.63;;
27893;SDS011;15240;50.812;4.792;2022-12-04T06:06:56;74.63;;;34.67;;
27893;SDS011;15240;50.812;4.792;2022-12-04T06:09:22;64.60;;;32.37;;
27893;SDS011;15240;50.812;4.792;2022-12-04T06:11:48;73.93;;;35.33;;
27893;SDS011;15240;50.812;4.792;2022-12-04T06:14:15;69.83;;;33.43;;
27893;SDS011;15240;50.812;4.792;2022-12-04T06:16:43;71.13;;;34.17;;
27893;SDS011;15240;50.812;4.792;2022-12-04T06:19:11;79.53;;;38.70;;
27893;SDS011;15240;50.812;4.792;2022-12-04T06:21:38;73.23;;;36.07;;
27893;SDS011;15240;50.812;4.792;2022-12-04T06:24:04;74.43;;;37.70;;
27893;SDS011;15240;50.812;4.792;2022-12-04T06:26:30;76.17;;;36.90;;
27893;SDS011;15240;50.812;4.792;2022-12-04T06:28:57;70.30;;;33.83;;
27893;SDS011;15240;50.812;4.792;2022-12-04T06:31:24;72.80;;;33.67;;
27893;SDS011;15240;50.812;4.792;2022-12-04T06:33:51;71.80;;;34.90;;
27893;SDS011;15240;50.812;4.792;2022-12-04T06:36:18;76.50;;;35.07;;
27893;SDS011;15240;50.812;4.792;2022-12-04T06:38:45;75.43;;;34.17;;
27893;SDS011;15240;50.812;4.792;2022-12-04T06:41:12;72.93;;;35.47;;
27893;SDS011;15240;50.812;4.792;2022-12-04T06:43:39;70.60;;;34.23;;
27893;SDS011;15240;50.812;4.792;2022-12-04T06:46:14;69.37;;;34.90;;
27893;SDS011;15240;50.812;4.792;2022-12-04T06:48:41;75.50;;;36.03;;
27893;SDS011;15240;50.812;4.792;2022-12-04T06:51:11;74.90;;;35.10;;
27893;SDS011;15240;50.812;4.792;2022-12-04T06:53:38;77.37;;;35.60;;
27893;SDS011;15240;50.812;4.792;2022-12-04T06:56:06;75.80;;;36.53;;
27893;SDS011;15240;50.812;4.792;2022-12-04T06:58:33;74.53;;;35.90;;
27893;SDS011;15240;50.812;4.792;2022-12-04T07:01:04;74.80;;;34.43;;
27893;SDS011;15240;50.812;4.792;2022-12-04T07:03:30;70.60;;;35.33;;
27893;SDS011;15240;50.812;4.792;2022-12-04T07:05:56;74.27;;;34.77;;
27893;SDS011;15240;50.812;4.792;2022-12-04T07:08:22;72.17;;;35.23;;
27893;SDS011;15240;50.812;4.792;2022-12-04T07:10:48;72.33;;;35.03;;
27893;SDS011;15240;50.812;4.792;2022-12-04T07:13:14;67.67;;;33.83;;
27893;SDS011;15240;50.812;4.792;2022-12-04T07:15:40;68.90;;;32.27;;
27893;SDS011;15240;50.812;4.792;2022-12-04T07:18:06;68.53;;;34.30;;
27893;SDS011;15240;50.812;4.792;2022-12-04T07:20:32;72.53;;;34.87;;
27893;SDS011;15240;50.812;4.792;2022-12-04T07:22:58;72.50;;;34.90;;
27893;SDS011;15240;50.812;4.792;2022-12-04T07:25:24;70.87;;;35.83;;
27893;SDS011;15240;50.812;4.792;2022-12-04T07:27:53;71.80;;;33.77;;
27893;SDS011;15240;50.812;4.792;2022-12-04T07:30:19;72.00;;;34.83;;
27893;SDS011;15240;50.812;4.792;2022-12-04T07:32:45;70.77;;;34.83;;
27893;SDS011;15240;50.812;4.792;2022-12-04T07:35:11;73.97;;;34.80;;
27893;SDS011;15240;50.812;4.792;2022-12-04T07:37:37;73.43;;;33.67;;
27893;SDS011;15240;50.812;4.792;2022-12-04T07:40:04;71.93;;;33.40;;
27893;SDS011;15240;50.812;4.792;2022-12-04T07:42:30;71.93;;;34.73;;
27893;SDS011;15240;50.812;4.792;2022-12-04T07:44:56;74.17;;;34.23;;
27893;SDS011;15240;50.812;4.792;2022-12-04T07:47:22;72.27;;;34.43;;
27893;SDS011;15240;50.812;4.792;2022-12-04T07:49:48;68.93;;;34.23;;
27893;SDS011;15240;50.812;4.792;2022-12-04T07:52:14;67.77;;;33.87;;
27893;SDS011;15240;50.812;4.792;2022-12-04T07:54:40;65.57;;;32.80;;
27893;SDS011;15240;50.812;4.792;2022-12-04T07:57:06;73.87;;;35.97;;
27893;SDS011;15240;50.812;4.792;2022-12-04T07:59:32;70.83;;;33.70;;
27893;SDS011;15240;50.812;4.792;2022-12-04T08:01:59;77.47;;;35.67;;
27893;SDS011;15240;50.812;4.792;2022-12-04T08:04:25;69.57;;;33.07;;
27893;SDS011;15240;50.812;4.792;2022-12-04T08:06:51;70.03;;;33.83;;
27893;SDS011;15240;50.812;4.792;2022-12-04T08:09:17;69.10;;;34.60;;
27893;SDS011;15240;50.812;4.792;2022-12-04T08:11:43;67.27;;;33.17;;
27893;SDS011;15240;50.812;4.792;2022-12-04T08:14:09;66.87;;;34.17;;
27893;SDS011;15240;50.812;4.792;2022-12-04T08:16:36;70.77;;;33.80;;
27893;SDS011;15240;50.812;4.792;2022-12-04T08:19:04;68.50;;;32.90;;
27893;SDS011;15240;50.812;4.792;2022-12-04T08:21:30;68.07;;;33.10;;
27893;SDS011;15240;50.812;4.792;2022-12-04T08:23:56;70.60;;;33.97;;
27893;SDS011;15240;50.812;4.792;2022-12-04T08:26:25;73.37;;;36.13;;
27893;SDS011;15240;50.812;4.792;2022-12-04T08:28:51;72.47;;;34.40;;
27893;SDS011;15240;50.812;4.792;2022-12-04T08:31:18;70.93;;;32.60;;
27893;SDS011;15240;50.812;4.792;2022-12-04T08:33:45;64.70;;;32.67;;
27893;SDS011;15240;50.812;4.792;2022-12-04T08:36:14;67.93;;;35.53;;
27893;SDS011;15240;50.812;4.792;2022-12-04T08:38:41;69.57;;;34.40;;
27893;SDS011;15240;50.812;4.792;2022-12-04T08:41:09;73.33;;;37.87;;
27893;SDS011;15240;50.812;4.792;2022-12-04T08:43:35;68.67;;;33.83;;
27893;SDS011;15240;50.812;4.792;2022-12-04T08:46:02;74.93;;;34.60;;
27893;SDS011;15240;50.812;4.792;2022-12-04T08:48:29;65.13;;;33.73;;
27893;SDS011;15240;50.812;4.792;2022-12-04T08:50:55;69.57;;;34.07;;
27893;SDS011;15240;50.812;4.792;2022-12-04T08:53:21;69.60;;;34.60;;
27893;SDS011;15240;50.812;4.792;2022-12-04T08:55:47;73.70;;;34.27;;
27893;SDS011;15240;50.812;4.792;2022-12-04T08:58:14;68.93;;;33.20;;
27893;SDS011;15240;50.812;4.792;2022-12-04T09:00:40;73.63;;;36.53;;
27893;SDS011;15240;50.812;4.792;2022-12-04T09:03:06;70.97;;;34.30;;
27893;SDS011;15240;50.812;4.792;2022-12-04T09:05:32;68.77;;;35.00;;
27893;SDS011;15240;50.812;4.792;2022-12-04T09:07:58;69.77;;;35.27;;
27893;SDS011;15240;50.812;4.792;2022-12-04T09:10:24;68.40;;;34.40;;
27893;SDS011;15240;50.812;4.792;2022-12-04T09:12:50;66.37;;;33.37;;
27893;SDS011;15240;50.812;4.792;2022-12-04T09:15:16;67.40;;;33.10;;
27893;SDS011;15240;50.812;4.792;2022-12-04T09:17:42;65.10;;;33.27;;
27893;SDS011;15240;50.812;4.792;2022-12-04T09:20:08;65.63;;;33.47;;
27893;SDS011;15240;50.812;4.792;2022-12-04T09:22:35;63.33;;;33.80;;
27893;SDS011;15240;50.812;4.792;2022-12-04T09:25:02;68.40;;;33.60;;
27893;SDS011;15240;50.812;4.792;2022-12-04T09:27:29;62.80;;;33.07;;
27893;SDS011;15240;50.812;4.792;2022-12-04T09:29:55;60.97;;;32.47;;
27893;SDS011;15240;50.812;4.792;2022-12-04T09:32:21;63.50;;;31.50;;
27893;SDS011;15240;50.812;4.792;2022-12-04T09:34:47;62.53;;;31.40;;
27893;SDS011;15240;50.812;4.792;2022-12-04T09:37:13;63.10;;;32.03;;
27893;SDS011;15240;50.812;4.792;2022-12-04T09:39:41;57.73;;;31.87;;
27893;SDS011;15240;50.812;4.792;2022-12-04T09:44:54;59.13;;;30.43;;
27893;SDS011;15240;50.812;4.792;2022-12-04T09:48:07;59.50;;;31.67;;
27893;SDS011;15240;50.812;4.792;2022-12-04T09:50:30;61.60;;;34.90;;
27893;SDS011;15240;50.812;4.792;2022-12-04T09:52:58;51.33;;;33.27;;
27893;SDS011;15240;50.812;4.792;2022-12-04T09:57:53;45.40;;;25.87;;
27893;SDS011;15240;50.812;4.792;2022-12-04T10:00:20;75.30;;;40.73;;
27893;SDS011;15240;50.812;4.792;2022-12-04T10:02:59;44.10;;;25.90;;
27893;SDS011;15240;50.812;4.792;2022-12-04T10:08:02;43.50;;;26.27;;
27893;SDS011;15240;50.812;4.792;2022-12-04T10:15:54;47.67;;;28.17;;
27893;SDS011;15240;50.812;4.792;2022-12-04T10:18:47;51.50;;;28.33;;
27893;SDS011;15240;50.812;4.792;2022-12-04T10:26:12;76.07;;;49.37;;
27893;SDS011;15240;50.812;4.792;2022-12-04T10:28:45;60.20;;;36.03;;
27893;SDS011;15240;50.812;4.792;2022-12-04T10:31:13;48.67;;;25.13;;
27893;SDS011;15240;50.812;4.792;2022-12-04T10:33:46;45.53;;;26.67;;
27893;SDS011;15240;50.812;4.792;2022-12-04T10:36:19;45.27;;;25.53;;
27893;SDS011;15240;50.812;4.792;2022-12-04T10:38:56;43.20;;;25.40;;
27893;SDS011;15240;50.812;4.792;2022-12-04T10:41:42;46.90;;;25.20;;
27893;SDS011;15240;50.812;4.792;2022-12-04T10:44:13;46.20;;;26.10;;
27893;SDS011;15240;50.812;4.792;2022-12-04T10:46:40;55.40;;;38.33;;
27893;SDS011;15240;50.812;4.792;2022-12-04T10:49:11;40.20;;;22.43;;
27893;SDS011;15240;50.812;4.792;2022-12-04T10:51:41;42.40;;;28.73;;
27893;SDS011;15240;50.812;4.792;2022-12-04T10:56:49;41.73;;;23.50;;
27893;SDS011;15240;50.812;4.792;2022-12-04T10:59:15;39.53;;;24.67;;
27893;SDS011;15240;50.812;4.792;2022-12-04T11:01:41;35.97;;;22.47;;
27893;SDS011;15240;50.812;4.792;2022-12-04T11:04:08;38.23;;;24.03;;
27893;SDS011;15240;50.812;4.792;2022-12-04T11:06:35;39.77;;;24.53;;
27893;SDS011;15240;50.812;4.792;2022-12-04T11:09:02;40.90;;;24.87;;
27893;SDS011;15240;50.812;4.792;2022-12-04T11:11:29;39.53;;;24.67;;
27893;SDS011;15240;50.812;4.792;2022-12-04T11:16:37;43.57;;;26.43;;
27893;SDS011;15240;50.812;4.792;2022-12-04T11:19:26;43.27;;;24.57;;
27893;SDS011;15240;50.812;4.792;2022-12-04T11:21:57;43.93;;;24.83;;
27893;SDS011;15240;50.812;4.792;2022-12-04T11:24:27;46.47;;;26.60;;
27893;SDS011;15240;50.812;4.792;2022-12-04T11:26:54;50.10;;;39.53;;
27893;SDS011;15240;50.812;4.792;2022-12-04T11:29:22;45.53;;;27.03;;
27893;SDS011;15240;50.812;4.792;2022-12-04T11:31:50;43.10;;;25.57;;
27893;SDS011;15240;50.812;4.792;2022-12-04T11:34:18;47.07;;;35.57;;
27893;SDS011;15240;50.812;4.792;2022-12-04T11:36:49;43.13;;;25.20;;
27893;SDS011;15240;50.812;4.792;2022-12-04T11:39:17;45.83;;;30.00;;
27893;SDS011;15240;50.812;4.792;2022-12-04T11:41:43;44.27;;;26.37;;
27893;SDS011;15240;50.812;4.792;2022-12-04T11:44:26;41.63;;;25.27;;
27893;SDS011;15240;50.812;4.792;2022-12-04T11:46:53;45.10;;;27.40;;
27893;SDS011;15240;50.812;4.792;2022-12-04T11:49:24;52.27;;;30.43;;
27893;SDS011;15240;50.812;4.792;2022-12-04T11:54:33;43.50;;;26.87;;
27893;SDS011;15240;50.812;4.792;2022-12-04T11:59:39;52.03;;;30.37;;
27893;SDS011;15240;50.812;4.792;2022-12-04T12:10:21;48.33;;;28.20;;
27893;SDS011;15240;50.812;4.792;2022-12-04T12:15:55;50.30;;;27.57;;
27893;SDS011;15240;50.812;4.792;2022-12-04T12:21:04;49.23;;;30.33;;
27893;SDS011;15240;50.812;4.792;2022-12-04T12:26:04;49.77;;;27.73;;
27893;SDS011;15240;50.812;4.792;2022-12-04T12:33:35;47.40;;;27.90;;
27893;SDS011;15240;50.812;4.792;2022-12-04T12:38:32;45.47;;;26.80;;
27893;SDS011;15240;50.812;4.792;2022-12-04T12:41:11;48.80;;;26.13;;
27893;SDS011;15240;50.812;4.792;2022-12-04T12:43:39;44.50;;;24.53;;
27893;SDS011;15240;50.812;4.792;2022-12-04T12:46:26;42.03;;;24.97;;
27893;SDS011;15240;50.812;4.792;2022-12-04T12:49:01;41.50;;;24.63;;
27893;SDS011;15240;50.812;4.792;2022-12-04T12:51:32;46.87;;;25.87;;
27893;SDS011;15240;50.812;4.792;2022-12-04T12:54:08;45.27;;;26.03;;
27893;SDS011;15240;50.812;4.792;2022-12-04T12:56:38;42.03;;;24.23;;
27893;SDS011;15240;50.812;4.792;2022-12-04T12:59:05;42.23;;;23.27;;
27893;SDS011;15240;50.812;4.792;2022-12-04T13:01:41;37.20;;;23.20;;
27893;SDS011;15240;50.812;4.792;2022-12-04T13:04:14;37.30;;;22.23;;
27893;SDS011;15240;50.812;4.792;2022-12-04T13:06:43;39.33;;;23.00;;
27893;SDS011;15240;50.812;4.792;2022-12-04T13:11:38;40.63;;;25.03;;
27893;SDS011;15240;50.812;4.792;2022-12-04T13:14:05;40.77;;;25.67;;
27893;SDS011;15240;50.812;4.792;2022-12-04T13:16:35;38.93;;;23.33;;
27893;SDS011;15240;50.812;4.792;2022-12-04T13:21:36;48.47;;;38.13;;
27893;SDS011;15240;50.812;4.792;2022-12-04T13:41:59;44.33;;;26.33;;
27893;SDS011;15240;50.812;4.792;2022-12-04T13:44:25;41.47;;;29.53;;
27893;SDS011;15240;50.812;4.792;2022-12-04T13:47:03;37.50;;;24.70;;
27893;SDS011;15240;50.812;4.792;2022-12-04T13:49:31;41.97;;;26.63;;
27893;SDS011;15240;50.812;4.792;2022-12-04T13:52:01;38.47;;;24.67;;
27893;SDS011;15240;50.812;4.792;2022-12-04T13:54:31;63.63;;;42.83;;
27893;SDS011;15240;50.812;4.792;2022-12-04T13:57:19;52.73;;;38.47;;
27893;SDS011;15240;50.812;4.792;2022-12-04T13:59:44;58.83;;;38.37;;
27893;SDS011;15240;50.812;4.792;2022-12-04T14:02:27;59.93;;;36.90;;
27893;SDS011;15240;50.812;4.792;2022-12-04T14:04:57;42.30;;;28.57;;
27893;SDS011;15240;50.812;4.792;2022-12-04T14:07:25;45.23;;;27.20;;
27893;SDS011;15240;50.812;4.792;2022-12-04T14:09:52;43.03;;;25.87;;
27893;SDS011;15240;50.812;4.792;2022-12-04T14:12:22;40.40;;;24.20;;
27893;SDS011;15240;50.812;4.792;2022-12-04T14:14:54;38.93;;;25.03;;
27893;SDS011;15240;50.812;4.792;2022-12-04T14:17:31;41.90;;;25.87;;
27893;SDS011;15240;50.812;4.792;2022-12-04T14:19:59;41.40;;;24.93;;
27893;SDS011;15240;50.812;4.792;2022-12-04T14:22:39;42.03;;;26.07;;
27893;SDS011;15240;50.812;4.792;2022-12-04T14:25:07;43.10;;;25.77;;
27893;SDS011;15240;50.812;4.792;2022-12-04T14:27:44;42.97;;;29.40;;
27893;SDS011;15240;50.812;4.792;2022-12-04T14:32:59;41.40;;;25.83;;
27893;SDS011;15240;50.812;4.792;2022-12-04T14:35:30;42.57;;;26.53;;
27893;SDS011;15240;50.812;4.792;2022-12-04T14:37:59;41.97;;;26.93;;
27893;SDS011;15240;50.812;4.792;2022-12-04T14:40:30;44.47;;;27.07;;
27893;SDS011;15240;50.812;4.792;2022-12-04T14:42:59;40.40;;;26.57;;
27893;SDS011;15240;50.812;4.792;2022-12-04T14:45:42;41.50;;;25.73;;
27893;SDS011;15240;50.812;4.792;2022-12-04T14:50:44;58.90;;;37.87;;
27893;SDS011;15240;50.812;4.792;2022-12-04T14:53:15;46.87;;;26.97;;
27893;SDS011;15240;50.812;4.792;2022-12-04T14:58:28;44.63;;;27.17;;
27893;SDS011;15240;50.812;4.792;2022-12-04T15:03:34;44.20;;;27.63;;
27893;SDS011;15240;50.812;4.792;2022-12-04T15:06:05;42.53;;;27.00;;
27893;SDS011;15240;50.812;4.792;2022-12-04T15:08:31;45.30;;;27.27;;
27893;SDS011;15240;50.812;4.792;2022-12-04T15:10:57;44.80;;;26.63;;
27893;SDS011;15240;50.812;4.792;2022-12-04T15:13:42;47.10;;;27.13;;
27893;SDS011;15240;50.812;4.792;2022-12-04T15:16:15;43.97;;;26.87;;
27893;SDS011;15240;50.812;4.792;2022-12-04T15:18:51;44.07;;;27.83;;
27893;SDS011;15240;50.812;4.792;2022-12-04T15:21:17;43.67;;;26.43;;
27893;SDS011;15240;50.812;4.792;2022-12-04T15:23:44;45.80;;;30.60;;
27893;SDS011;15240;50.812;4.792;2022-12-04T15:26:11;44.53;;;28.33;;
27893;SDS011;15240;50.812;4.792;2022-12-04T15:34:05;43.43;;;28.87;;
27893;SDS011;15240;50.812;4.792;2022-12-04T15:39:01;47.50;;;28.87;;
27893;SDS011;15240;50.812;4.792;2022-12-04T15:41:33;145.30;;;98.43;;
27893;SDS011;15240;50.812;4.792;2022-12-04T15:43:59;77.00;;;48.67;;
27893;SDS011;15240;50.812;4.792;2022-12-04T15:46:29;70.87;;;46.43;;
27893;SDS011;15240;50.812;4.792;2022-12-04T15:49:06;59.63;;;38.90;;
27893;SDS011;15240;50.812;4.792;2022-12-04T15:51:32;44.77;;;27.83;;
27893;SDS011;15240;50.812;4.792;2022-12-04T15:53:59;44.00;;;27.40;;
27893;SDS011;15240;50.812;4.792;2022-12-04T15:56:25;46.73;;;29.00;;
27893;SDS011;15240;50.812;4.792;2022-12-04T15:58:56;44.57;;;26.87;;
27893;SDS011;15240;50.812;4.792;2022-12-04T16:01:23;51.53;;;32.40;;
27893;SDS011;15240;50.812;4.792;2022-12-04T16:03:58;47.93;;;29.50;;
27893;SDS011;15240;50.812;4.792;2022-12-04T16:06:30;46.03;;;27.97;;
27893;SDS011;15240;50.812;4.792;2022-12-04T16:11:27;57.53;;;38.30;;
27893;SDS011;15240;50.812;4.792;2022-12-04T16:14:13;48.00;;;30.63;;
27893;SDS011;15240;50.812;4.792;2022-12-04T16:16:41;49.27;;;32.57;;
27893;SDS011;15240;50.812;4.792;2022-12-04T16:19:10;48.93;;;32.30;;
27893;SDS011;15240;50.812;4.792;2022-12-04T16:21:36;71.00;;;44.90;;
27893;SDS011;15240;50.812;4.792;2022-12-04T16:24:03;48.77;;;30.33;;
27893;SDS011;15240;50.812;4.792;2022-12-04T16:26:29;44.60;;;26.60;;
27893;SDS011;15240;50.812;4.792;2022-12-04T16:28:55;48.30;;;28.57;;
27893;SDS011;15240;50.812;4.792;2022-12-04T16:31:23;47.13;;;27.73;;
27893;SDS011;15240;50.812;4.792;2022-12-04T16:33:49;48.53;;;28.47;;
27893;SDS011;15240;50.812;4.792;2022-12-04T16:36:15;48.80;;;31.10;;
27893;SDS011;15240;50.812;4.792;2022-12-04T16:38:41;48.23;;;27.63;;